sensor_id;sensor_type;location;lat;lon;timestamp;temperature;humidity
9410;DHT22;4744;52.576;13.568;2022-08-21T00:01:28;19.00;41.40
9410;DHT22;4744;52.576;13.568;2022-08-21T00:03:56;19.00;42.20
9410;DHT22;4744;52.576;13.568;2022-08-21T00:06:23;19.00;41.50
9410;DHT22;4744;52.576;13.568;2022-08-21T00:08:51;19.00;41.90
9410;DHT22;4744;52.576;13.568;2022-08-21T00:11:18;19.00;41.50
9410;DHT22;4744;52.576;13.568;2022-08-21T00:13:44;19.00;40.10
9410;DHT22;4744;52.576;13.568;2022-08-21T00:16:11;19.00;41.20
9410;DHT22;4744;52.576;13.568;2022-08-21T00:18:38;19.00;42.10
9410;DHT22;4744;52.576;13.568;2022-08-21T00:21:07;18.90;42.50
9410;DHT22;4744;52.576;13.568;2022-08-21T00:23:35;18.90;39.60
9410;DHT22;4744;52.576;13.568;2022-08-21T00:26:02;18.90;39.50
9410;DHT22;4744;52.576;13.568;2022-08-21T00:28:29;18.80;38.60
9410;DHT22;4744;52.576;13.568;2022-08-21T00:30:55;18.90;37.30
9410;DHT22;4744;52.576;13.568;2022-08-21T00:33:23;18.90;36.70
9410;DHT22;4744;52.576;13.568;2022-08-21T00:35:50;18.90;38.40
9410;DHT22;4744;52.576;13.568;2022-08-21T00:38:18;18.90;36.50
9410;DHT22;4744;52.576;13.568;2022-08-21T00:40:48;18.80;39.20
9410;DHT22;4744;52.576;13.568;2022-08-21T00:43:19;18.80;35.80
9410;DHT22;4744;52.576;13.568;2022-08-21T00:45:46;18.80;35.50
9410;DHT22;4744;52.576;13.568;2022-08-21T00:48:13;18.80;36.50
9410;DHT22;4744;52.576;13.568;2022-08-21T00:50:43;18.80;36.50
9410;DHT22;4744;52.576;13.568;2022-08-21T00:53:11;18.70;33.90
9410;DHT22;4744;52.576;13.568;2022-08-21T00:55:41;18.70;33.00
9410;DHT22;4744;52.576;13.568;2022-08-21T00:58:09;18.70;32.30
9410;DHT22;4744;52.576;13.568;2022-08-21T01:00:39;18.70;33.40
9410;DHT22;4744;52.576;13.568;2022-08-21T01:03:09;18.70;31.40
9410;DHT22;4744;52.576;13.568;2022-08-21T01:05:38;18.70;31.80
9410;DHT22;4744;52.576;13.568;2022-08-21T01:08:05;18.70;31.90
9410;DHT22;4744;52.576;13.568;2022-08-21T01:10:33;18.70;30.00
9410;DHT22;4744;52.576;13.568;2022-08-21T01:13:04;18.70;30.20
9410;DHT22;4744;52.576;13.568;2022-08-21T01:15:43;18.70;29.20
9410;DHT22;4744;52.576;13.568;2022-08-21T01:18:11;18.60;28.00
9410;DHT22;4744;52.576;13.568;2022-08-21T01:20:42;18.60;26.00
9410;DHT22;4744;52.576;13.568;2022-08-21T01:23:10;18.60;22.00
9410;DHT22;4744;52.576;13.568;2022-08-21T01:25:38;18.60;20.10
9410;DHT22;4744;52.576;13.568;2022-08-21T01:28:11;18.60;17.50
9410;DHT22;4744;52.576;13.568;2022-08-21T01:30:39;18.60;17.20
9410;DHT22;4744;52.576;13.568;2022-08-21T01:33:06;18.60;17.30
9410;DHT22;4744;52.576;13.568;2022-08-21T01:35:33;18.60;15.70
9410;DHT22;4744;52.576;13.568;2022-08-21T01:38:00;18.50;17.10
9410;DHT22;4744;52.576;13.568;2022-08-21T01:40:28;18.50;16.10
9410;DHT22;4744;52.576;13.568;2022-08-21T01:42:55;18.50;15.40
9410;DHT22;4744;52.576;13.568;2022-08-21T01:45:22;18.50;16.00
9410;DHT22;4744;52.576;13.568;2022-08-21T01:47:49;18.50;15.10
9410;DHT22;4744;52.576;13.568;2022-08-21T01:50:17;18.50;12.40
9410;DHT22;4744;52.576;13.568;2022-08-21T01:52:44;18.40;9.90
9410;DHT22;4744;52.576;13.568;2022-08-21T01:55:16;18.40;5.70
9410;DHT22;4744;52.576;13.568;2022-08-21T01:57:46;18.50;5.20
9410;DHT22;4744;52.576;13.568;2022-08-21T02:00:15;18.50;5.30
9410;DHT22;4744;52.576;13.568;2022-08-21T02:02:42;18.40;3.30
9410;DHT22;4744;52.576;13.568;2022-08-21T02:05:11;18.40;3.00
9410;DHT22;4744;52.576;13.568;2022-08-21T02:07:39;18.40;1.00
9410;DHT22;4744;52.576;13.568;2022-08-21T02:10:09;18.40;1.60
9410;DHT22;4744;52.576;13.568;2022-08-21T02:12:37;18.40;2.40
9410;DHT22;4744;52.576;13.568;2022-08-21T02:15:07;18.40;1.40
9410;DHT22;4744;52.576;13.568;2022-08-21T02:17:39;18.40;1.00
9410;DHT22;4744;52.576;13.568;2022-08-21T02:20:08;18.30;1.00
9410;DHT22;4744;52.576;13.568;2022-08-21T02:22:35;18.30;1.00
9410;DHT22;4744;52.576;13.568;2022-08-21T02:25:03;18.30;1.00
9410;DHT22;4744;52.576;13.568;2022-08-21T02:27:38;18.30;1.00
9410;DHT22;4744;52.576;13.568;2022-08-21T02:30:09;18.20;1.00
9410;DHT22;4744;52.576;13.568;2022-08-21T02:32:39;18.20;1.00
9410;DHT22;4744;52.576;13.568;2022-08-21T02:35:07;18.20;1.00
9410;DHT22;4744;52.576;13.568;2022-08-21T02:37:41;18.20;1.00
9410;DHT22;4744;52.576;13.568;2022-08-21T02:40:09;18.20;1.00
9410;DHT22;4744;52.576;13.568;2022-08-21T02:42:37;18.10;1.00
9410;DHT22;4744;52.576;13.568;2022-08-21T02:45:09;18.10;1.00
9410;DHT22;4744;52.576;13.568;2022-08-21T02:47:36;18.10;1.00
9410;DHT22;4744;52.576;13.568;2022-08-21T02:50:05;18.00;1.00
9410;DHT22;4744;52.576;13.568;2022-08-21T02:52:33;18.00;1.00
9410;DHT22;4744;52.576;13.568;2022-08-21T02:55:00;18.00;1.00
9410;DHT22;4744;52.576;13.568;2022-08-21T02:57:27;18.00;1.00
9410;DHT22;4744;52.576;13.568;2022-08-21T02:59:54;17.90;1.00
9410;DHT22;4744;52.576;13.568;2022-08-21T03:02:22;17.90;1.00
9410;DHT22;4744;52.576;13.568;2022-08-21T03:04:49;17.90;1.00
9410;DHT22;4744;52.576;13.568;2022-08-21T03:07:16;17.80;1.00
9410;DHT22;4744;52.576;13.568;2022-08-21T03:09:42;17.80;1.00
9410;DHT22;4744;52.576;13.568;2022-08-21T03:12:09;17.80;1.00
9410;DHT22;4744;52.576;13.568;2022-08-21T03:14:36;17.70;1.00
9410;DHT22;4744;52.576;13.568;2022-08-21T03:17:04;17.70;1.00
9410;DHT22;4744;52.576;13.568;2022-08-21T03:19:32;17.70;1.00
9410;DHT22;4744;52.576;13.568;2022-08-21T03:21:59;17.70;1.00
9410;DHT22;4744;52.576;13.568;2022-08-21T03:24:26;17.70;1.00
9410;DHT22;4744;52.576;13.568;2022-08-21T03:26:52;17.70;1.00
9410;DHT22;4744;52.576;13.568;2022-08-21T03:29:19;17.70;1.00
9410;DHT22;4744;52.576;13.568;2022-08-21T03:31:46;17.60;1.00
9410;DHT22;4744;52.576;13.568;2022-08-21T03:34:13;17.60;1.00
9410;DHT22;4744;52.576;13.568;2022-08-21T03:36:41;17.60;1.00
9410;DHT22;4744;52.576;13.568;2022-08-21T03:39:08;17.60;1.00
9410;DHT22;4744;52.576;13.568;2022-08-21T03:41:35;17.50;1.00
9410;DHT22;4744;52.576;13.568;2022-08-21T03:44:03;17.50;1.00
9410;DHT22;4744;52.576;13.568;2022-08-21T03:46:29;17.50;1.00
9410;DHT22;4744;52.576;13.568;2022-08-21T03:48:57;17.50;1.00
9410;DHT22;4744;52.576;13.568;2022-08-21T03:51:24;17.40;1.00
9410;DHT22;4744;52.576;13.568;2022-08-21T03:53:52;17.40;1.00
9410;DHT22;4744;52.576;13.568;2022-08-21T03:56:20;17.40;1.00
9410;DHT22;4744;52.576;13.568;2022-08-21T03:58:47;17.30;1.00
9410;DHT22;4744;52.576;13.568;2022-08-21T04:01:14;17.30;1.00
9410;DHT22;4744;52.576;13.568;2022-08-21T04:03:41;17.30;1.00
9410;DHT22;4744;52.576;13.568;2022-08-21T04:06:08;17.20;1.00
9410;DHT22;4744;52.576;13.568;2022-08-21T04:08:35;17.20;1.00
9410;DHT22;4744;52.576;13.568;2022-08-21T04:11:03;17.20;1.00
9410;DHT22;4744;52.576;13.568;2022-08-21T04:13:31;17.10;1.00
9410;DHT22;4744;52.576;13.568;2022-08-21T04:15:58;17.10;1.00
9410;DHT22;4744;52.576;13.568;2022-08-21T04:18:25;17.10;1.00
9410;DHT22;4744;52.576;13.568;2022-08-21T04:20:53;17.10;1.00
9410;DHT22;4744;52.576;13.568;2022-08-21T04:23:21;17.10;1.00
9410;DHT22;4744;52.576;13.568;2022-08-21T04:25:48;17.10;1.00
9410;DHT22;4744;52.576;13.568;2022-08-21T04:28:16;17.10;1.00
9410;DHT22;4744;52.576;13.568;2022-08-21T04:30:43;17.10;1.00
9410;DHT22;4744;52.576;13.568;2022-08-21T04:33:10;17.10;1.00
9410;DHT22;4744;52.576;13.568;2022-08-21T04:35:37;17.00;1.00
9410;DHT22;4744;52.576;13.568;2022-08-21T04:38:04;17.00;1.00
9410;DHT22;4744;52.576;13.568;2022-08-21T04:40:31;17.00;1.00
9410;DHT22;4744;52.576;13.568;2022-08-21T04:43:03;17.00;1.00
9410;DHT22;4744;52.576;13.568;2022-08-21T04:45:34;17.00;1.00
9410;DHT22;4744;52.576;13.568;2022-08-21T04:48:03;17.00;1.00
9410;DHT22;4744;52.576;13.568;2022-08-21T04:50:39;16.90;1.00
9410;DHT22;4744;52.576;13.568;2022-08-21T04:53:08;17.00;1.00
9410;DHT22;4744;52.576;13.568;2022-08-21T04:55:36;17.00;1.00
9410;DHT22;4744;52.576;13.568;2022-08-21T04:58:04;16.90;1.00
9410;DHT22;4744;52.576;13.568;2022-08-21T05:00:33;16.90;1.00
9410;DHT22;4744;52.576;13.568;2022-08-21T05:03:00;16.90;1.00
9410;DHT22;4744;52.576;13.568;2022-08-21T05:05:28;16.90;1.00
9410;DHT22;4744;52.576;13.568;2022-08-21T05:07:56;16.90;1.00
9410;DHT22;4744;52.576;13.568;2022-08-21T05:10:23;16.90;1.00
9410;DHT22;4744;52.576;13.568;2022-08-21T05:12:50;16.90;1.00
9410;DHT22;4744;52.576;13.568;2022-08-21T05:15:17;16.90;1.00
9410;DHT22;4744;52.576;13.568;2022-08-21T05:17:45;16.90;1.00
9410;DHT22;4744;52.576;13.568;2022-08-21T05:20:13;17.00;1.00
9410;DHT22;4744;52.576;13.568;2022-08-21T05:22:40;17.00;1.00
9410;DHT22;4744;52.576;13.568;2022-08-21T05:25:08;17.00;1.00
9410;DHT22;4744;52.576;13.568;2022-08-21T05:27:35;17.00;1.00
9410;DHT22;4744;52.576;13.568;2022-08-21T05:30:03;17.00;1.00
9410;DHT22;4744;52.576;13.568;2022-08-21T05:32:30;17.00;1.00
9410;DHT22;4744;52.576;13.568;2022-08-21T05:34:58;17.00;1.00
9410;DHT22;4744;52.576;13.568;2022-08-21T05:37:25;17.00;1.00
9410;DHT22;4744;52.576;13.568;2022-08-21T05:39:52;17.00;1.00
9410;DHT22;4744;52.576;13.568;2022-08-21T05:42:19;17.00;1.00
9410;DHT22;4744;52.576;13.568;2022-08-21T05:44:45;17.00;1.00
9410;DHT22;4744;52.576;13.568;2022-08-21T05:47:12;17.00;1.00
9410;DHT22;4744;52.576;13.568;2022-08-21T05:49:48;17.00;1.00
9410;DHT22;4744;52.576;13.568;2022-08-21T05:52:20;17.00;1.00
9410;DHT22;4744;52.576;13.568;2022-08-21T05:54:47;17.00;1.00
9410;DHT22;4744;52.576;13.568;2022-08-21T05:57:14;17.00;1.00
9410;DHT22;4744;52.576;13.568;2022-08-21T05:59:41;17.00;1.00
9410;DHT22;4744;52.576;13.568;2022-08-21T06:02:08;17.00;1.00
9410;DHT22;4744;52.576;13.568;2022-08-21T06:04:36;17.10;1.00
9410;DHT22;4744;52.576;13.568;2022-08-21T06:07:03;17.10;1.00
9410;DHT22;4744;52.576;13.568;2022-08-21T06:09:31;17.10;1.00
9410;DHT22;4744;52.576;13.568;2022-08-21T06:12:02;17.10;1.00
9410;DHT22;4744;52.576;13.568;2022-08-21T06:14:29;17.10;1.00
9410;DHT22;4744;52.576;13.568;2022-08-21T06:17:02;17.10;1.00
9410;DHT22;4744;52.576;13.568;2022-08-21T06:19:29;17.10;1.00
9410;DHT22;4744;52.576;13.568;2022-08-21T06:21:55;17.20;1.00
9410;DHT22;4744;52.576;13.568;2022-08-21T06:24:22;17.20;1.00
9410;DHT22;4744;52.576;13.568;2022-08-21T06:26:51;17.20;1.00
9410;DHT22;4744;52.576;13.568;2022-08-21T06:29:18;17.20;1.00
9410;DHT22;4744;52.576;13.568;2022-08-21T06:31:45;17.30;1.00
9410;DHT22;4744;52.576;13.568;2022-08-21T06:34:13;17.30;1.00
9410;DHT22;4744;52.576;13.568;2022-08-21T06:36:40;17.30;1.00
9410;DHT22;4744;52.576;13.568;2022-08-21T06:39:07;17.40;1.00
9410;DHT22;4744;52.576;13.568;2022-08-21T06:41:34;17.40;1.00
9410;DHT22;4744;52.576;13.568;2022-08-21T06:44:02;17.40;1.00
9410;DHT22;4744;52.576;13.568;2022-08-21T06:46:30;17.40;1.00
9410;DHT22;4744;52.576;13.568;2022-08-21T06:48:57;17.50;1.00
9410;DHT22;4744;52.576;13.568;2022-08-21T06:51:24;17.50;1.00
9410;DHT22;4744;52.576;13.568;2022-08-21T06:53:52;17.60;1.00
9410;DHT22;4744;52.576;13.568;2022-08-21T06:56:19;17.60;1.00
9410;DHT22;4744;52.576;13.568;2022-08-21T06:58:46;17.70;1.00
9410;DHT22;4744;52.576;13.568;2022-08-21T07:01:15;17.70;1.00
9410;DHT22;4744;52.576;13.568;2022-08-21T07:03:43;17.80;1.00
9410;DHT22;4744;52.576;13.568;2022-08-21T07:06:11;17.80;1.00
9410;DHT22;4744;52.576;13.568;2022-08-21T07:08:38;17.90;1.00
9410;DHT22;4744;52.576;13.568;2022-08-21T07:11:09;17.90;1.00
9410;DHT22;4744;52.576;13.568;2022-08-21T07:13:36;17.90;1.00
9410;DHT22;4744;52.576;13.568;2022-08-21T07:16:03;18.00;1.00
9410;DHT22;4744;52.576;13.568;2022-08-21T07:18:31;18.00;1.00
9410;DHT22;4744;52.576;13.568;2022-08-21T07:21:00;18.10;1.00
9410;DHT22;4744;52.576;13.568;2022-08-21T07:23:29;18.10;1.00
9410;DHT22;4744;52.576;13.568;2022-08-21T07:25:57;18.20;1.00
9410;DHT22;4744;52.576;13.568;2022-08-21T07:28:26;18.20;1.00
9410;DHT22;4744;52.576;13.568;2022-08-21T07:30:56;18.30;1.00
9410;DHT22;4744;52.576;13.568;2022-08-21T07:33:24;18.40;1.00
9410;DHT22;4744;52.576;13.568;2022-08-21T07:35:53;18.40;1.00
9410;DHT22;4744;52.576;13.568;2022-08-21T07:38:20;18.50;1.00
9410;DHT22;4744;52.576;13.568;2022-08-21T07:40:47;18.50;1.00
9410;DHT22;4744;52.576;13.568;2022-08-21T07:43:15;18.60;1.00
9410;DHT22;4744;52.576;13.568;2022-08-21T07:45:43;18.60;1.00
9410;DHT22;4744;52.576;13.568;2022-08-21T07:48:11;18.60;1.00
9410;DHT22;4744;52.576;13.568;2022-08-21T07:50:38;18.70;1.00
9410;DHT22;4744;52.576;13.568;2022-08-21T07:53:07;18.80;1.00
9410;DHT22;4744;52.576;13.568;2022-08-21T07:55:34;18.80;1.00
9410;DHT22;4744;52.576;13.568;2022-08-21T07:58:01;18.90;1.00
9410;DHT22;4744;52.576;13.568;2022-08-21T08:00:29;18.90;1.00
9410;DHT22;4744;52.576;13.568;2022-08-21T08:02:57;19.00;1.00
9410;DHT22;4744;52.576;13.568;2022-08-21T08:05:26;19.00;1.00
9410;DHT22;4744;52.576;13.568;2022-08-21T08:07:53;19.10;1.00
9410;DHT22;4744;52.576;13.568;2022-08-21T08:10:22;19.20;1.00
9410;DHT22;4744;52.576;13.568;2022-08-21T08:12:50;19.20;1.00
9410;DHT22;4744;52.576;13.568;2022-08-21T08:15:21;19.40;1.00
9410;DHT22;4744;52.576;13.568;2022-08-21T08:17:48;19.50;1.00
9410;DHT22;4744;52.576;13.568;2022-08-21T08:20:16;19.60;1.00
9410;DHT22;4744;52.576;13.568;2022-08-21T08:22:46;19.80;1.00
9410;DHT22;4744;52.576;13.568;2022-08-21T08:25:14;19.90;1.00
9410;DHT22;4744;52.576;13.568;2022-08-21T08:27:43;20.00;1.00
9410;DHT22;4744;52.576;13.568;2022-08-21T08:30:12;20.10;1.00
9410;DHT22;4744;52.576;13.568;2022-08-21T08:32:41;20.20;1.00
9410;DHT22;4744;52.576;13.568;2022-08-21T08:35:08;20.20;1.00
9410;DHT22;4744;52.576;13.568;2022-08-21T08:37:36;20.30;1.00
9410;DHT22;4744;52.576;13.568;2022-08-21T08:40:07;20.30;1.00
9410;DHT22;4744;52.576;13.568;2022-08-21T08:42:36;20.30;1.00
9410;DHT22;4744;52.576;13.568;2022-08-21T08:45:08;20.30;1.00
9410;DHT22;4744;52.576;13.568;2022-08-21T08:47:38;20.30;1.00
9410;DHT22;4744;52.576;13.568;2022-08-21T08:50:08;20.40;1.00
9410;DHT22;4744;52.576;13.568;2022-08-21T08:52:41;20.50;1.00
9410;DHT22;4744;52.576;13.568;2022-08-21T08:55:14;20.40;1.00
9410;DHT22;4744;52.576;13.568;2022-08-21T08:57:44;20.50;1.00
9410;DHT22;4744;52.576;13.568;2022-08-21T09:00:15;20.40;1.00
9410;DHT22;4744;52.576;13.568;2022-08-21T09:02:44;20.50;1.00
9410;DHT22;4744;52.576;13.568;2022-08-21T09:05:20;20.40;1.00
9410;DHT22;4744;52.576;13.568;2022-08-21T09:07:58;20.50;1.00
9410;DHT22;4744;52.576;13.568;2022-08-21T09:10:38;20.50;1.00
9410;DHT22;4744;52.576;13.568;2022-08-21T09:13:15;20.50;1.00
9410;DHT22;4744;52.576;13.568;2022-08-21T09:15:52;20.60;1.00
9410;DHT22;4744;52.576;13.568;2022-08-21T09:18:32;20.60;1.00
9410;DHT22;4744;52.576;13.568;2022-08-21T09:21:06;20.60;1.00
9410;DHT22;4744;52.576;13.568;2022-08-21T09:23:43;20.70;1.00
9410;DHT22;4744;52.576;13.568;2022-08-21T09:26:16;20.70;1.00
9410;DHT22;4744;52.576;13.568;2022-08-21T09:28:44;20.80;1.00
9410;DHT22;4744;52.576;13.568;2022-08-21T09:31:22;20.80;1.00
9410;DHT22;4744;52.576;13.568;2022-08-21T09:33:49;20.80;1.00
9410;DHT22;4744;52.576;13.568;2022-08-21T09:36:25;20.90;1.00
9410;DHT22;4744;52.576;13.568;2022-08-21T09:38:56;20.90;1.00
9410;DHT22;4744;52.576;13.568;2022-08-21T09:41:28;20.90;1.00
9410;DHT22;4744;52.576;13.568;2022-08-21T09:43:55;21.00;1.00
9410;DHT22;4744;52.576;13.568;2022-08-21T09:46:25;21.00;1.00
9410;DHT22;4744;52.576;13.568;2022-08-21T09:48:54;21.00;1.00
9410;DHT22;4744;52.576;13.568;2022-08-21T09:51:23;21.00;1.00
9410;DHT22;4744;52.576;13.568;2022-08-21T09:53:54;21.00;1.00
9410;DHT22;4744;52.576;13.568;2022-08-21T09:56:27;21.10;1.00
9410;DHT22;4744;52.576;13.568;2022-08-21T09:59:24;21.10;1.00
9410;DHT22;4744;52.576;13.568;2022-08-21T10:01:54;21.10;1.00
9410;DHT22;4744;52.576;13.568;2022-08-21T10:04:23;21.10;1.00
9410;DHT22;4744;52.576;13.568;2022-08-21T10:06:50;21.20;1.00
9410;DHT22;4744;52.576;13.568;2022-08-21T10:09:19;21.20;1.00
9410;DHT22;4744;52.576;13.568;2022-08-21T10:11:53;21.20;1.00
9410;DHT22;4744;52.576;13.568;2022-08-21T10:14:38;21.30;1.00
9410;DHT22;4744;52.576;13.568;2022-08-21T10:17:14;21.30;1.00
9410;DHT22;4744;52.576;13.568;2022-08-21T10:19:49;21.40;1.00
9410;DHT22;4744;52.576;13.568;2022-08-21T10:22:28;21.40;1.00
9410;DHT22;4744;52.576;13.568;2022-08-21T10:25:02;21.40;1.00
9410;DHT22;4744;52.576;13.568;2022-08-21T10:27:39;21.50;1.00
9410;DHT22;4744;52.576;13.568;2022-08-21T10:30:13;21.50;1.00
9410;DHT22;4744;52.576;13.568;2022-08-21T10:33:10;21.50;1.00
9410;DHT22;4744;52.576;13.568;2022-08-21T10:35:44;21.60;1.00
9410;DHT22;4744;52.576;13.568;2022-08-21T10:41:32;21.60;1.00
9410;DHT22;4744;52.576;13.568;2022-08-21T10:44:09;21.70;1.00
9410;DHT22;4744;52.576;13.568;2022-08-21T10:46:45;21.70;1.00
9410;DHT22;4744;52.576;13.568;2022-08-21T10:49:25;21.70;1.00
9410;DHT22;4744;52.576;13.568;2022-08-21T10:52:07;21.70;1.00
9410;DHT22;4744;52.576;13.568;2022-08-21T10:54:43;21.80;1.00
9410;DHT22;4744;52.576;13.568;2022-08-21T10:57:19;21.80;1.00
9410;DHT22;4744;52.576;13.568;2022-08-21T10:59:57;21.90;1.00
9410;DHT22;4744;52.576;13.568;2022-08-21T11:02:29;21.90;1.00
9410;DHT22;4744;52.576;13.568;2022-08-21T11:05:03;22.00;1.00
9410;DHT22;4744;52.576;13.568;2022-08-21T11:07:35;22.10;1.00
9410;DHT22;4744;52.576;13.568;2022-08-21T11:10:10;22.10;1.00
9410;DHT22;4744;52.576;13.568;2022-08-21T11:12:42;22.20;1.00
9410;DHT22;4744;52.576;13.568;2022-08-21T11:15:36;22.30;1.00
9410;DHT22;4744;52.576;13.568;2022-08-21T11:18:15;22.30;1.00
9410;DHT22;4744;52.576;13.568;2022-08-21T11:20:51;22.40;1.00
9410;DHT22;4744;52.576;13.568;2022-08-21T11:23:25;22.40;1.00
9410;DHT22;4744;52.576;13.568;2022-08-21T11:25:57;22.40;1.00
9410;DHT22;4744;52.576;13.568;2022-08-21T11:28:29;22.40;1.00
9410;DHT22;4744;52.576;13.568;2022-08-21T11:31:02;22.40;1.00
9410;DHT22;4744;52.576;13.568;2022-08-21T11:33:42;22.50;1.00
9410;DHT22;4744;52.576;13.568;2022-08-21T11:36:18;22.40;1.00
9410;DHT22;4744;52.576;13.568;2022-08-21T11:38:55;22.50;1.00
9410;DHT22;4744;52.576;13.568;2022-08-21T11:41:30;22.50;1.00
9410;DHT22;4744;52.576;13.568;2022-08-21T11:44:05;22.60;1.00
9410;DHT22;4744;52.576;13.568;2022-08-21T11:46:44;22.60;1.00
9410;DHT22;4744;52.576;13.568;2022-08-21T11:49:28;22.70;1.00
9410;DHT22;4744;52.576;13.568;2022-08-21T11:52:04;22.70;1.00
9410;DHT22;4744;52.576;13.568;2022-08-21T11:54:37;22.80;1.00
9410;DHT22;4744;52.576;13.568;2022-08-21T11:57:13;22.90;1.00
9410;DHT22;4744;52.576;13.568;2022-08-21T11:59:44;22.90;1.00
9410;DHT22;4744;52.576;13.568;2022-08-21T12:02:14;22.90;1.00
9410;DHT22;4744;52.576;13.568;2022-08-21T12:04:45;23.00;1.00
9410;DHT22;4744;52.576;13.568;2022-08-21T12:07:16;23.00;1.00
9410;DHT22;4744;52.576;13.568;2022-08-21T12:09:54;23.00;1.00
9410;DHT22;4744;52.576;13.568;2022-08-21T12:12:26;23.00;1.00
9410;DHT22;4744;52.576;13.568;2022-08-21T12:15:13;23.00;1.00
9410;DHT22;4744;52.576;13.568;2022-08-21T12:17:50;23.00;1.00
9410;DHT22;4744;52.576;13.568;2022-08-21T12:20:33;23.00;1.00
9410;DHT22;4744;52.576;13.568;2022-08-21T12:23:12;23.00;1.00
9410;DHT22;4744;52.576;13.568;2022-08-21T12:25:42;22.90;1.00
9410;DHT22;4744;52.576;13.568;2022-08-21T12:28:12;22.90;1.00
9410;DHT22;4744;52.576;13.568;2022-08-21T12:30:41;22.90;1.00
9410;DHT22;4744;52.576;13.568;2022-08-21T12:33:20;22.90;1.00
9410;DHT22;4744;52.576;13.568;2022-08-21T12:35:48;22.90;1.00
9410;DHT22;4744;52.576;13.568;2022-08-21T12:38:18;22.80;1.00
9410;DHT22;4744;52.576;13.568;2022-08-21T12:40:50;22.70;1.00
9410;DHT22;4744;52.576;13.568;2022-08-21T12:43:21;22.70;1.00
9410;DHT22;4744;52.576;13.568;2022-08-21T12:45:51;22.70;1.00
9410;DHT22;4744;52.576;13.568;2022-08-21T12:48:22;22.80;1.00
9410;DHT22;4744;52.576;13.568;2022-08-21T12:50:52;23.00;1.00
9410;DHT22;4744;52.576;13.568;2022-08-21T12:53:28;23.20;1.00
9410;DHT22;4744;52.576;13.568;2022-08-21T12:55:57;23.30;1.00
9410;DHT22;4744;52.576;13.568;2022-08-21T12:58:27;23.50;1.00
9410;DHT22;4744;52.576;13.568;2022-08-21T13:00:58;23.70;1.00
9410;DHT22;4744;52.576;13.568;2022-08-21T13:03:26;23.80;1.00
9410;DHT22;4744;52.576;13.568;2022-08-21T13:05:54;24.10;1.00
9410;DHT22;4744;52.576;13.568;2022-08-21T13:08:23;24.30;1.00
9410;DHT22;4744;52.576;13.568;2022-08-21T13:10:58;24.50;1.00
9410;DHT22;4744;52.576;13.568;2022-08-21T13:13:26;24.50;1.00
9410;DHT22;4744;52.576;13.568;2022-08-21T13:15:57;24.60;1.00
9410;DHT22;4744;52.576;13.568;2022-08-21T13:18:29;24.70;1.00
9410;DHT22;4744;52.576;13.568;2022-08-21T13:21:04;24.70;1.00
9410;DHT22;4744;52.576;13.568;2022-08-21T13:23:31;24.70;1.00
9410;DHT22;4744;52.576;13.568;2022-08-21T13:26:00;24.70;1.00
9410;DHT22;4744;52.576;13.568;2022-08-21T13:28:33;24.60;1.00
9410;DHT22;4744;52.576;13.568;2022-08-21T13:31:07;24.60;1.00
9410;DHT22;4744;52.576;13.568;2022-08-21T13:33:37;24.70;1.00
9410;DHT22;4744;52.576;13.568;2022-08-21T13:36:07;24.80;1.00
9410;DHT22;4744;52.576;13.568;2022-08-21T13:38:36;24.90;1.00
9410;DHT22;4744;52.576;13.568;2022-08-21T13:41:10;24.90;1.00
9410;DHT22;4744;52.576;13.568;2022-08-21T13:43:38;24.90;1.00
9410;DHT22;4744;52.576;13.568;2022-08-21T13:46:12;24.90;1.00
9410;DHT22;4744;52.576;13.568;2022-08-21T13:48:40;24.80;1.00
9410;DHT22;4744;52.576;13.568;2022-08-21T13:51:07;24.60;1.00
9410;DHT22;4744;52.576;13.568;2022-08-21T13:53:46;24.60;1.00
9410;DHT22;4744;52.576;13.568;2022-08-21T13:56:24;24.60;1.00
9410;DHT22;4744;52.576;13.568;2022-08-21T13:58:53;24.70;1.00
9410;DHT22;4744;52.576;13.568;2022-08-21T14:01:23;24.80;1.00
9410;DHT22;4744;52.576;13.568;2022-08-21T14:03:53;24.80;1.00
9410;DHT22;4744;52.576;13.568;2022-08-21T14:06:22;24.80;1.00
9410;DHT22;4744;52.576;13.568;2022-08-21T14:08:52;24.60;1.00
9410;DHT22;4744;52.576;13.568;2022-08-21T14:11:20;24.50;1.00
9410;DHT22;4744;52.576;13.568;2022-08-21T14:13:55;24.50;1.00
9410;DHT22;4744;52.576;13.568;2022-08-21T14:16:25;24.50;1.00
9410;DHT22;4744;52.576;13.568;2022-08-21T14:19:09;24.50;1.00
9410;DHT22;4744;52.576;13.568;2022-08-21T14:21:39;24.60;1.00
9410;DHT22;4744;52.576;13.568;2022-08-21T14:24:10;24.60;1.00
9410;DHT22;4744;52.576;13.568;2022-08-21T14:26:44;24.70;1.00
9410;DHT22;4744;52.576;13.568;2022-08-21T14:29:15;24.80;1.00
9410;DHT22;4744;52.576;13.568;2022-08-21T14:31:43;24.80;1.00
9410;DHT22;4744;52.576;13.568;2022-08-21T14:34:11;24.70;1.00
9410;DHT22;4744;52.576;13.568;2022-08-21T14:36:39;24.70;1.00
9410;DHT22;4744;52.576;13.568;2022-08-21T14:39:06;24.70;1.00
9410;DHT22;4744;52.576;13.568;2022-08-21T14:41:33;24.60;1.00
9410;DHT22;4744;52.576;13.568;2022-08-21T14:44:00;24.50;1.00
9410;DHT22;4744;52.576;13.568;2022-08-21T14:46:30;24.50;1.00
9410;DHT22;4744;52.576;13.568;2022-08-21T14:48:58;24.40;1.00
9410;DHT22;4744;52.576;13.568;2022-08-21T14:51:25;24.30;1.00
9410;DHT22;4744;52.576;13.568;2022-08-21T14:53:51;24.20;1.00
9410;DHT22;4744;52.576;13.568;2022-08-21T14:56:19;24.10;1.00
9410;DHT22;4744;52.576;13.568;2022-08-21T14:58:47;24.10;1.00
9410;DHT22;4744;52.576;13.568;2022-08-21T15:01:16;24.00;1.00
9410;DHT22;4744;52.576;13.568;2022-08-21T15:03:45;23.90;1.00
9410;DHT22;4744;52.576;13.568;2022-08-21T15:06:14;23.80;1.00
9410;DHT22;4744;52.576;13.568;2022-08-21T15:08:41;23.70;1.00
9410;DHT22;4744;52.576;13.568;2022-08-21T15:11:11;23.60;1.00
9410;DHT22;4744;52.576;13.568;2022-08-21T15:13:39;23.60;1.00
9410;DHT22;4744;52.576;13.568;2022-08-21T15:16:09;23.50;1.00
9410;DHT22;4744;52.576;13.568;2022-08-21T15:18:37;23.50;1.00
9410;DHT22;4744;52.576;13.568;2022-08-21T15:21:05;23.50;1.00
9410;DHT22;4744;52.576;13.568;2022-08-21T15:23:32;23.40;1.00
9410;DHT22;4744;52.576;13.568;2022-08-21T15:25:59;23.40;1.00
9410;DHT22;4744;52.576;13.568;2022-08-21T15:28:26;23.40;1.00
9410;DHT22;4744;52.576;13.568;2022-08-21T15:30:54;23.40;1.00
9410;DHT22;4744;52.576;13.568;2022-08-21T15:33:20;23.30;1.00
9410;DHT22;4744;52.576;13.568;2022-08-21T15:35:48;23.30;1.00
9410;DHT22;4744;52.576;13.568;2022-08-21T15:38:16;23.30;1.00
9410;DHT22;4744;52.576;13.568;2022-08-21T15:40:43;23.20;1.00
9410;DHT22;4744;52.576;13.568;2022-08-21T15:43:19;23.20;1.00
9410;DHT22;4744;52.576;13.568;2022-08-21T15:45:47;23.10;1.00
9410;DHT22;4744;52.576;13.568;2022-08-21T15:48:14;23.10;1.00
9410;DHT22;4744;52.576;13.568;2022-08-21T15:50:41;23.10;1.00
9410;DHT22;4744;52.576;13.568;2022-08-21T15:53:08;23.10;1.00
9410;DHT22;4744;52.576;13.568;2022-08-21T15:55:36;23.00;1.00
9410;DHT22;4744;52.576;13.568;2022-08-21T15:58:04;23.00;1.00
9410;DHT22;4744;52.576;13.568;2022-08-21T16:00:35;23.00;1.00
9410;DHT22;4744;52.576;13.568;2022-08-21T16:03:04;22.90;1.00
9410;DHT22;4744;52.576;13.568;2022-08-21T16:05:32;22.90;1.00
9410;DHT22;4744;52.576;13.568;2022-08-21T16:07:59;22.90;1.00
9410;DHT22;4744;52.576;13.568;2022-08-21T16:10:26;22.70;1.00
9410;DHT22;4744;52.576;13.568;2022-08-21T16:12:57;22.70;1.00
9410;DHT22;4744;52.576;13.568;2022-08-21T16:15:25;22.70;1.00
9410;DHT22;4744;52.576;13.568;2022-08-21T16:17:53;22.60;1.00
9410;DHT22;4744;52.576;13.568;2022-08-21T16:20:23;22.50;1.00